createdAt,value
2019-05-21T00:00:40.940Z,18.82
2019-05-21T00:01:40.968Z,18.82
2019-05-21T00:02:40.993Z,18.86
2019-05-21T00:03:41.017Z,18.78
2019-05-21T00:04:41.055Z,18.74
2019-05-21T00:05:41.070Z,18.67
2019-05-21T00:06:41.099Z,18.71
2019-05-21T00:07:41.134Z,18.78
2019-05-21T00:08:41.151Z,18.68
2019-05-21T00:09:41.176Z,18.64
2019-05-21T00:10:41.202Z,18.67
2019-05-21T00:11:41.231Z,18.67
2019-05-21T00:12:41.260Z,18.70
2019-05-21T00:13:41.286Z,18.74
2019-05-21T00:14:41.308Z,18.78
2019-05-21T00:15:41.338Z,18.74
2019-05-21T00:16:41.367Z,18.79
2019-05-21T00:17:41.390Z,18.82
2019-05-21T00:18:41.413Z,18.74
2019-05-21T00:19:41.444Z,18.81
2019-05-21T00:20:41.484Z,18.74
2019-05-21T00:21:41.492Z,18.74
2019-05-21T00:22:41.525Z,18.78
2019-05-21T00:23:41.557Z,18.74
2019-05-21T00:24:41.592Z,18.76
2019-05-21T00:25:41.600Z,18.78
2019-05-21T00:26:41.623Z,18.79
2019-05-21T00:27:41.655Z,18.71
2019-05-21T00:28:41.681Z,18.67
2019-05-21T00:29:41.704Z,18.68
2019-05-21T00:30:41.728Z,18.70
2019-05-21T00:31:41.759Z,18.71
2019-05-21T00:32:41.782Z,18.67
2019-05-21T00:33:41.816Z,18.63
2019-05-21T00:34:44.252Z,18.71
2019-05-21T00:35:41.865Z,18.67
2019-05-21T00:36:41.905Z,18.68
2019-05-21T00:37:41.916Z,18.68
2019-05-21T00:38:41.942Z,18.68
2019-05-21T00:39:41.974Z,18.71
2019-05-21T00:40:41.994Z,18.68
2019-05-21T00:41:42.042Z,18.61
2019-05-21T00:42:42.052Z,18.71
2019-05-21T00:43:42.080Z,18.73
2019-05-21T00:44:42.101Z,18.70
2019-05-21T00:45:42.124Z,18.67
2019-05-21T00:46:42.151Z,18.64
2019-05-21T00:47:42.177Z,18.70
2019-05-21T00:48:42.211Z,18.63
2019-05-21T00:49:42.235Z,18.64
2019-05-21T00:50:42.256Z,18.60
2019-05-21T00:51:42.286Z,18.63
2019-05-21T00:52:42.308Z,18.66
2019-05-21T00:53:42.334Z,18.61
2019-05-21T00:54:42.365Z,18.63
2019-05-21T00:55:42.387Z,18.64
2019-05-21T00:56:42.414Z,18.66
2019-05-21T00:57:42.439Z,18.61
2019-05-21T00:58:42.468Z,18.63
2019-05-21T00:59:42.494Z,18.61
2019-05-21T01:00:42.520Z,18.63
2019-05-21T01:01:42.554Z,18.60
2019-05-21T01:02:42.578Z,18.61
2019-05-21T01:03:43.381Z,18.66
2019-05-21T01:04:42.627Z,18.61
2019-05-21T01:05:42.666Z,18.61
2019-05-21T01:06:42.690Z,18.64
2019-05-21T01:07:42.704Z,18.63
2019-05-21T01:08:42.734Z,18.53
2019-05-21T01:09:42.754Z,18.58
2019-05-21T01:10:42.782Z,18.55
2019-05-21T01:11:42.806Z,18.53
2019-05-21T01:12:42.838Z,18.52
2019-05-21T01:13:42.871Z,18.45
2019-05-21T01:14:42.884Z,18.43
2019-05-21T01:15:42.918Z,18.51
2019-05-21T01:16:42.944Z,18.49
2019-05-21T01:17:42.970Z,18.55
2019-05-21T01:18:43.011Z,18.55
2019-05-21T01:19:43.022Z,18.57
2019-05-21T01:20:43.054Z,18.43
2019-05-21T01:21:43.078Z,18.57
2019-05-21T01:22:43.136Z,18.45
2019-05-21T01:23:43.139Z,18.48
2019-05-21T01:24:43.150Z,18.46
2019-05-21T01:25:43.186Z,18.45
2019-05-21T01:26:43.204Z,18.41
2019-05-21T01:27:43.232Z,18.48
2019-05-21T01:28:43.258Z,18.61
2019-05-21T01:29:43.291Z,18.55
2019-05-21T01:30:43.313Z,18.58
2019-05-21T01:31:43.334Z,18.48
2019-05-21T01:32:43.358Z,18.49
2019-05-21T01:33:43.386Z,18.46
2019-05-21T01:34:43.414Z,18.46
2019-05-21T01:35:43.449Z,18.45
2019-05-21T01:36:43.465Z,18.42
2019-05-21T01:37:43.493Z,18.43
2019-05-21T01:38:43.601Z,18.39
2019-05-21T01:39:43.544Z,18.37
2019-05-21T01:40:43.571Z,18.34
2019-05-21T01:41:43.601Z,18.39
2019-05-21T01:42:43.621Z,18.39
2019-05-21T01:43:43.659Z,18.36
2019-05-21T01:44:43.679Z,18.30
2019-05-21T01:45:43.704Z,18.41
2019-05-21T01:46:43.740Z,18.33
2019-05-21T01:47:43.752Z,18.42
2019-05-21T01:48:43.784Z,18.37
2019-05-21T01:49:43.812Z,18.37
2019-05-21T01:50:43.833Z,18.34
2019-05-21T01:51:43.876Z,18.28
2019-05-21T01:52:43.957Z,18.26
2019-05-21T01:53:43.913Z,18.15
2019-05-21T01:54:43.933Z,18.21
2019-05-21T01:55:43.967Z,18.15
2019-05-21T01:56:43.992Z,18.18
2019-05-21T01:57:44.018Z,18.27
2019-05-21T01:58:44.040Z,18.31
2019-05-21T01:59:44.069Z,18.26
2019-05-21T02:00:44.101Z,18.27
2019-05-21T02:01:44.122Z,18.27
2019-05-21T02:02:44.153Z,18.18
2019-05-21T02:03:44.173Z,18.18
2019-05-21T02:04:44.256Z,18.16
2019-05-21T02:05:44.228Z,18.23
2019-05-21T02:06:44.247Z,18.15
2019-05-21T02:07:44.277Z,18.21
2019-05-21T02:08:44.305Z,18.30
2019-05-21T02:09:44.331Z,18.30
2019-05-21T02:10:44.359Z,18.24
2019-05-21T02:11:44.384Z,18.26
2019-05-21T02:12:44.413Z,18.24
2019-05-21T02:13:44.439Z,18.26
2019-05-21T02:14:44.466Z,18.18
2019-05-21T02:15:44.486Z,18.24
2019-05-21T02:16:44.520Z,18.27
2019-05-21T02:17:44.538Z,18.24
2019-05-21T02:18:44.567Z,18.27
2019-05-21T02:19:44.598Z,18.27
2019-05-21T02:20:44.617Z,18.16
2019-05-21T02:21:44.640Z,18.15
2019-05-21T02:22:44.669Z,18.19
2019-05-21T02:23:44.701Z,18.21
2019-05-21T02:24:44.723Z,18.18
2019-05-21T02:25:44.747Z,18.12
2019-05-21T02:26:44.776Z,18.12
2019-05-21T02:27:44.806Z,18.24
2019-05-21T02:28:44.830Z,18.23
2019-05-21T02:29:44.860Z,18.09
2019-05-21T02:30:44.883Z,18.19
2019-05-21T02:31:44.923Z,18.18
2019-05-21T02:32:44.929Z,18.12
2019-05-21T02:33:44.960Z,18.13
2019-05-21T02:34:44.987Z,18.12
2019-05-21T02:35:54.049Z,18.05
2019-05-21T02:36:45.038Z,18.02
2019-05-21T02:37:45.061Z,18.02
2019-05-21T02:38:45.149Z,17.95
2019-05-21T02:39:45.121Z,17.97
2019-05-21T02:40:45.152Z,18.08
2019-05-21T02:41:45.178Z,17.98
2019-05-21T02:42:45.205Z,18.05
2019-05-21T02:43:45.262Z,17.97
2019-05-21T02:44:45.247Z,18.03
2019-05-21T02:45:45.275Z,17.93
2019-05-21T02:46:45.296Z,18.08
2019-05-21T02:47:45.324Z,18.06
2019-05-21T02:48:45.349Z,18.09
2019-05-21T02:49:45.375Z,17.98
2019-05-21T02:50:45.403Z,18.11
2019-05-21T02:51:45.454Z,18.12
2019-05-21T02:52:45.453Z,17.93
2019-05-21T02:53:45.483Z,18.03
2019-05-21T02:54:45.510Z,18.00
2019-05-21T02:55:45.532Z,17.95
2019-05-21T02:56:45.577Z,17.97
2019-05-21T02:57:45.591Z,17.97
2019-05-21T02:58:45.621Z,17.90
2019-05-21T02:59:45.643Z,17.97
2019-05-21T03:00:45.662Z,17.97
2019-05-21T03:01:45.693Z,18.03
2019-05-21T03:02:45.722Z,18.05
2019-05-21T03:03:45.739Z,17.94
2019-05-21T03:04:45.771Z,17.97
2019-05-21T03:05:45.793Z,17.98
2019-05-21T03:06:45.838Z,18.00
2019-05-21T03:07:45.843Z,17.94
2019-05-21T03:08:45.868Z,17.98
2019-05-21T03:09:45.903Z,18.03
2019-05-21T03:10:45.934Z,17.94
2019-05-21T03:11:45.946Z,18.03
2019-05-21T03:12:45.975Z,17.95
2019-05-21T03:13:45.997Z,17.93
2019-05-21T03:14:46.030Z,18.03
2019-05-21T03:15:46.059Z,17.87
2019-05-21T03:16:46.079Z,17.88
2019-05-21T03:17:46.100Z,17.95
2019-05-21T03:18:46.152Z,17.80
2019-05-21T03:19:46.154Z,17.84
2019-05-21T03:20:46.185Z,17.91
2019-05-21T03:21:46.209Z,17.87
2019-05-21T03:22:46.234Z,17.94
2019-05-21T03:23:46.273Z,17.91
2019-05-21T03:24:46.293Z,17.93
2019-05-21T03:25:46.312Z,17.91
2019-05-21T03:26:46.337Z,17.88
2019-05-21T03:27:46.364Z,17.88
2019-05-21T03:28:46.391Z,17.88
2019-05-21T03:29:46.423Z,17.90
2019-05-21T03:30:46.442Z,17.86
2019-05-21T03:31:46.471Z,17.90
2019-05-21T03:32:46.502Z,17.88
2019-05-21T03:33:46.521Z,17.87
2019-05-21T03:34:46.545Z,17.90
2019-05-21T03:35:46.589Z,17.87
2019-05-21T03:36:46.597Z,17.90
2019-05-21T03:37:46.628Z,17.93
2019-05-21T03:38:46.651Z,17.86
2019-05-21T03:39:46.673Z,17.87
2019-05-21T03:40:46.703Z,17.86
2019-05-21T03:41:46.727Z,17.87
2019-05-21T03:42:46.752Z,17.84
2019-05-21T03:43:46.786Z,17.76
2019-05-21T03:44:58.925Z,17.93
2019-05-21T03:45:46.828Z,17.91
2019-05-21T03:46:46.876Z,17.88
2019-05-21T03:47:46.891Z,17.88
2019-05-21T03:48:46.945Z,17.91
2019-05-21T03:49:46.937Z,17.87
2019-05-21T03:50:46.961Z,17.91
2019-05-21T03:51:46.989Z,17.90
2019-05-21T03:52:47.012Z,17.90
2019-05-21T03:53:47.037Z,17.82
2019-05-21T03:54:47.069Z,17.91
2019-05-21T03:55:47.085Z,17.82
2019-05-21T03:56:47.116Z,17.94
2019-05-21T03:57:47.143Z,17.87
2019-05-21T03:58:47.174Z,17.88
2019-05-21T03:59:47.193Z,17.88
2019-05-21T04:00:47.231Z,17.87
2019-05-21T04:01:47.254Z,17.86
2019-05-21T04:02:47.280Z,17.94
2019-05-21T04:03:47.299Z,17.88
2019-05-21T04:04:47.328Z,17.93
2019-05-21T04:05:47.361Z,17.94
2019-05-21T04:06:51.856Z,17.93
2019-05-21T04:07:47.402Z,17.88
2019-05-21T04:08:47.430Z,18.02
2019-05-21T04:09:47.462Z,18.03
2019-05-21T04:10:47.481Z,17.88
2019-05-21T04:11:47.504Z,18.00
2019-05-21T04:12:47.531Z,17.97
2019-05-21T04:13:47.562Z,17.94
2019-05-21T04:14:47.586Z,18.00
2019-05-21T04:15:47.612Z,17.94
2019-05-21T04:16:47.635Z,17.91
2019-05-21T04:17:47.661Z,18.06
2019-05-21T04:18:47.686Z,18.02
2019-05-21T04:19:47.713Z,17.93
2019-05-21T04:20:47.746Z,17.94
2019-05-21T04:21:47.772Z,17.91
2019-05-21T04:22:47.792Z,18.05
2019-05-21T04:23:47.824Z,17.97
2019-05-21T04:24:47.840Z,18.02
2019-05-21T04:25:47.871Z,17.94
2019-05-21T04:26:47.903Z,18.03
2019-05-21T04:27:47.926Z,17.97
2019-05-21T04:28:47.944Z,18.06
2019-05-21T04:29:47.979Z,18.02
2019-05-21T04:30:47.997Z,17.97
2019-05-21T04:31:48.028Z,18.09
2019-05-21T04:32:48.050Z,17.97
2019-05-21T04:33:48.076Z,17.93
2019-05-21T04:34:48.104Z,17.97
2019-05-21T04:35:48.126Z,17.93
2019-05-21T04:36:48.153Z,17.87
2019-05-21T04:37:48.180Z,18.02
2019-05-21T04:38:48.253Z,17.94
2019-05-21T04:39:48.269Z,17.93
2019-05-21T04:40:48.274Z,17.97
2019-05-21T04:41:48.287Z,17.94
2019-05-21T04:42:48.317Z,18.03
2019-05-21T04:43:48.345Z,18.16
2019-05-21T04:44:48.378Z,18.23
2019-05-21T04:45:48.384Z,18.15
2019-05-21T04:46:48.420Z,18.11
2019-05-21T04:47:48.442Z,18.23
2019-05-21T04:48:48.469Z,18.30
2019-05-21T04:49:48.511Z,18.21
2019-05-21T04:50:48.521Z,18.30
2019-05-21T04:51:48.554Z,18.30
2019-05-21T04:52:48.572Z,18.28
2019-05-21T04:53:48.600Z,18.30
2019-05-21T04:54:48.632Z,18.16
2019-05-21T04:55:48.647Z,18.30
2019-05-21T04:56:48.673Z,18.41
2019-05-21T04:57:48.716Z,18.37
2019-05-21T04:58:48.760Z,18.24
2019-05-21T04:59:48.764Z,18.41
2019-05-21T05:00:48.780Z,18.33
2019-05-21T05:01:48.805Z,18.37
2019-05-21T05:02:48.831Z,18.43
2019-05-21T05:03:48.862Z,18.45
2019-05-21T05:04:48.883Z,18.42
2019-05-21T05:05:48.919Z,18.49
2019-05-21T05:06:48.933Z,18.55
2019-05-21T05:07:48.970Z,18.53
2019-05-21T05:08:49.007Z,18.58
2019-05-21T05:09:49.018Z,18.57
2019-05-21T05:10:49.500Z,18.63
2019-05-21T05:11:49.067Z,18.61
2019-05-21T05:12:49.093Z,18.61
2019-05-21T05:13:49.135Z,18.64
2019-05-21T05:14:49.143Z,18.64
2019-05-21T05:15:49.173Z,18.55
2019-05-21T05:16:49.206Z,18.61
2019-05-21T05:17:49.236Z,18.48
2019-05-21T05:18:49.258Z,18.42
2019-05-21T05:19:49.274Z,18.60
2019-05-21T05:20:49.310Z,18.46
2019-05-21T05:21:49.327Z,18.46
2019-05-21T05:22:49.358Z,18.46
2019-05-21T05:23:49.379Z,18.45
2019-05-21T05:24:49.410Z,18.58
2019-05-21T05:25:49.433Z,18.66
2019-05-21T05:26:49.465Z,18.66
2019-05-21T05:27:49.481Z,18.70
2019-05-21T05:28:49.505Z,18.63
2019-05-21T05:29:49.555Z,18.66
2019-05-21T05:30:49.563Z,18.64
2019-05-21T05:31:49.587Z,18.61
2019-05-21T05:32:49.621Z,18.61
2019-05-21T05:33:49.639Z,18.70
2019-05-21T05:34:49.672Z,18.73
2019-05-21T05:35:49.692Z,18.70
2019-05-21T05:36:49.717Z,18.66
2019-05-21T05:37:49.741Z,18.78
2019-05-21T05:38:49.772Z,18.81
2019-05-21T05:39:49.805Z,18.83
2019-05-21T05:40:49.823Z,18.71
2019-05-21T05:41:49.849Z,18.71
2019-05-21T05:42:49.875Z,18.63
2019-05-21T05:43:49.902Z,18.63
2019-05-21T05:44:49.932Z,18.79
2019-05-21T05:45:49.959Z,18.86
2019-05-21T05:46:49.981Z,18.81
2019-05-21T05:47:50.010Z,18.86
2019-05-21T05:48:50.030Z,18.85
2019-05-21T05:49:50.059Z,18.88
2019-05-21T05:50:50.085Z,18.94
2019-05-21T05:51:50.113Z,19.05
2019-05-21T05:52:50.138Z,19.01
2019-05-21T05:53:50.163Z,18.97
2019-05-21T05:54:50.234Z,18.89
2019-05-21T05:55:50.215Z,19.04
2019-05-21T05:56:50.244Z,19.11
2019-05-21T05:57:50.266Z,19.12
2019-05-21T05:58:50.297Z,19.08
2019-05-21T05:59:50.339Z,19.22
2019-05-21T06:00:50.348Z,19.16
2019-05-21T06:01:50.402Z,19.01
2019-05-21T06:02:50.397Z,19.04
2019-05-21T06:03:50.433Z,19.08
2019-05-21T06:04:50.456Z,19.15
2019-05-21T06:05:50.479Z,19.11
2019-05-21T06:06:50.506Z,19.09
2019-05-21T06:07:59.366Z,19.12
2019-05-21T06:08:50.561Z,19.24
2019-05-21T06:09:50.587Z,19.27
2019-05-21T06:10:50.611Z,19.29
2019-05-21T06:11:50.641Z,19.30
2019-05-21T06:12:50.713Z,19.27
2019-05-21T06:13:50.702Z,19.29
2019-05-21T06:14:50.718Z,19.27
2019-05-21T06:15:50.755Z,19.26
2019-05-21T06:16:50.768Z,19.23
2019-05-21T06:17:50.794Z,19.27
2019-05-21T06:18:50.826Z,19.27
2019-05-21T06:19:50.853Z,19.35
2019-05-21T06:20:50.873Z,19.24
2019-05-21T06:21:50.905Z,19.38
2019-05-21T06:22:50.932Z,19.41
2019-05-21T06:23:50.953Z,19.47
2019-05-21T06:24:50.977Z,19.49
2019-05-21T06:25:51.009Z,19.52
2019-05-21T06:26:51.030Z,19.63
2019-05-21T06:27:51.072Z,19.56
2019-05-21T06:28:51.082Z,19.63
2019-05-21T06:29:51.114Z,19.49
2019-05-21T06:30:51.141Z,19.47
2019-05-21T06:31:51.174Z,19.55
2019-05-21T06:32:51.190Z,19.66
2019-05-21T06:33:51.245Z,19.67
2019-05-21T06:34:51.245Z,19.72
2019-05-21T06:35:51.312Z,19.78
2019-05-21T06:36:51.297Z,19.72
2019-05-21T06:37:51.324Z,19.75
2019-05-21T06:38:51.350Z,19.70
2019-05-21T06:39:51.374Z,19.75
2019-05-21T06:40:51.398Z,19.70
2019-05-21T06:41:51.428Z,19.81
2019-05-21T06:42:51.462Z,19.66
2019-05-21T06:43:51.493Z,19.67
2019-05-21T06:44:51.514Z,19.64
2019-05-21T06:45:51.532Z,19.59
2019-05-21T06:46:51.564Z,19.64
2019-05-21T06:47:51.584Z,19.63
2019-05-21T06:48:51.615Z,19.74
2019-05-21T06:49:51.641Z,19.82
2019-05-21T06:50:51.671Z,19.77
2019-05-21T06:51:51.690Z,19.82
2019-05-21T06:52:51.727Z,19.72
2019-05-21T06:53:51.744Z,19.75
2019-05-21T06:54:51.776Z,19.81
2019-05-21T06:55:51.797Z,19.89
2019-05-21T06:56:51.839Z,19.93
2019-05-21T06:57:51.847Z,19.72
2019-05-21T06:58:51.884Z,19.55
2019-05-21T06:59:51.901Z,19.24
2019-05-21T07:00:51.969Z,19.48
2019-05-21T07:01:51.956Z,19.62
2019-05-21T07:02:51.992Z,19.66
2019-05-21T07:03:52.034Z,19.64
2019-05-21T07:04:52.045Z,19.60
2019-05-21T07:05:58.727Z,19.70
2019-05-21T07:06:52.089Z,19.82
2019-05-21T07:07:52.123Z,19.77
2019-05-21T07:08:52.145Z,19.71
2019-05-21T07:09:52.182Z,19.75
2019-05-21T07:10:52.210Z,19.77
2019-05-21T07:11:52.237Z,19.64
2019-05-21T07:12:52.262Z,19.56
2019-05-21T07:13:52.274Z,19.62
2019-05-21T07:14:52.312Z,19.64
2019-05-21T07:15:52.338Z,19.66
2019-05-21T07:16:52.370Z,19.66
2019-05-21T07:17:52.414Z,19.79
2019-05-21T07:18:52.475Z,19.75
2019-05-21T07:19:52.451Z,19.75
2019-05-21T07:20:52.467Z,19.79
2019-05-21T07:21:52.483Z,19.85
2019-05-21T07:22:52.691Z,20.12
2019-05-21T07:23:52.543Z,20.14
2019-05-21T07:24:52.581Z,20.29
2019-05-21T07:25:52.600Z,20.37
2019-05-21T07:26:52.678Z,20.39
2019-05-21T07:27:52.643Z,20.39
2019-05-21T07:28:54.420Z,20.59
2019-05-21T07:29:52.706Z,20.59
2019-05-21T07:30:52.745Z,20.66
2019-05-21T07:32:17.901Z,20.70
2019-05-21T07:32:56.969Z,20.68
2019-05-21T07:33:52.811Z,20.82
2019-05-21T07:34:52.838Z,20.85
2019-05-21T07:35:52.873Z,20.67
2019-05-21T07:36:52.895Z,20.56
2019-05-21T07:37:52.943Z,20.67
2019-05-21T07:38:54.242Z,20.71
2019-05-21T07:39:52.973Z,20.88
2019-05-21T07:40:53.024Z,20.96
2019-05-21T07:41:53.028Z,20.93
2019-05-21T07:42:53.069Z,21.01
2019-05-21T07:43:53.076Z,21.00
2019-05-21T07:44:53.107Z,20.88
2019-05-21T07:45:53.131Z,20.71
2019-05-21T07:46:53.169Z,20.70
2019-05-21T07:47:53.186Z,20.68
2019-05-21T07:48:53.279Z,20.75
2019-05-21T07:49:53.259Z,20.78
2019-05-21T07:50:53.291Z,20.71
2019-05-21T07:51:53.296Z,20.74
2019-05-21T07:52:53.329Z,20.83
2019-05-21T07:53:53.372Z,20.85
2019-05-21T07:54:53.373Z,20.83
2019-05-21T07:55:53.397Z,20.90
2019-05-21T07:56:53.662Z,20.90
2019-05-21T07:57:53.500Z,20.90
2019-05-21T07:58:53.479Z,21.01
2019-05-21T07:59:53.529Z,20.90
2019-05-21T08:00:53.612Z,20.88
2019-05-21T08:01:53.575Z,20.90
2019-05-21T08:02:53.581Z,21.01
2019-05-21T08:03:53.683Z,21.00
2019-05-21T08:04:53.641Z,20.96
2019-05-21T08:05:53.675Z,20.86
2019-05-21T08:06:53.699Z,20.93
2019-05-21T08:07:53.720Z,21.01
2019-05-21T08:09:11.772Z,20.98
2019-05-21T08:09:53.774Z,20.98
2019-05-21T08:10:53.790Z,21.10
2019-05-21T08:11:53.920Z,21.11
2019-05-21T08:12:53.877Z,21.15
2019-05-21T08:13:53.886Z,21.32
2019-05-21T08:14:53.930Z,21.29
2019-05-21T08:15:53.958Z,21.26
2019-05-21T08:16:53.975Z,21.28
2019-05-21T08:17:53.981Z,21.40
2019-05-21T08:18:54.043Z,21.30
2019-05-21T08:19:54.034Z,21.25
2019-05-21T08:20:54.078Z,21.25
2019-05-21T08:21:54.090Z,21.22
2019-05-21T08:22:54.118Z,21.29
2019-05-21T08:23:54.188Z,21.26
2019-05-21T08:24:54.182Z,21.17
2019-05-21T08:25:54.205Z,21.19
2019-05-21T08:26:54.236Z,21.35
2019-05-21T08:27:54.261Z,21.54
2019-05-21T08:28:54.463Z,21.62
2019-05-21T08:29:54.326Z,21.70
2019-05-21T08:30:54.354Z,21.66
2019-05-21T08:31:54.368Z,21.81
2019-05-21T08:32:54.383Z,22.01
2019-05-21T08:33:54.413Z,22.01
2019-05-21T08:34:54.446Z,22.16
2019-05-21T08:35:54.477Z,22.16
2019-05-21T08:36:54.491Z,22.07
2019-05-21T08:37:54.524Z,22.06
2019-05-21T08:38:54.570Z,21.92
2019-05-21T08:39:54.586Z,21.77
2019-05-21T08:40:54.609Z,21.70
2019-05-21T08:41:54.625Z,21.83
2019-05-21T08:42:54.670Z,22.07
2019-05-21T08:43:54.702Z,22.12
2019-05-21T08:44:54.707Z,22.07
2019-05-21T08:45:54.743Z,22.12
2019-05-21T08:46:54.771Z,22.12
2019-05-21T08:47:54.800Z,22.14
2019-05-21T08:48:54.817Z,22.23
2019-05-21T08:49:54.843Z,22.34
2019-05-21T08:50:54.890Z,22.37
2019-05-21T08:51:54.903Z,22.33
2019-05-21T08:52:54.926Z,22.28
2019-05-21T08:53:54.955Z,22.19
2019-05-21T08:54:56.425Z,22.28
2019-05-21T08:55:55.030Z,22.41
2019-05-21T08:56:55.032Z,22.58
2019-05-21T08:58:06.425Z,22.61
2019-05-21T08:58:55.103Z,22.73
2019-05-21T09:00:55.179Z,22.92
2019-05-21T09:02:16.204Z,22.99
2019-05-21T09:02:55.213Z,23.01
2019-05-21T09:03:55.250Z,22.83
2019-05-21T09:04:55.267Z,22.98
2019-05-21T09:05:55.328Z,23.01
2019-05-21T09:06:55.354Z,22.92
2019-05-21T09:07:55.351Z,23.01
2019-05-21T09:08:55.382Z,23.01
2019-05-21T09:09:55.398Z,22.95
2019-05-21T09:10:55.412Z,23.02
2019-05-21T09:11:55.479Z,23.10
2019-05-21T09:12:55.499Z,23.10
2019-05-21T09:13:55.506Z,23.18
2019-05-21T09:14:55.523Z,23.08
2019-05-21T09:15:55.590Z,23.11
2019-05-21T09:16:55.584Z,23.28
2019-05-21T09:17:55.622Z,23.26
2019-05-21T09:18:55.644Z,23.07
2019-05-21T09:19:55.665Z,22.84
2019-05-21T09:20:55.686Z,22.80
2019-05-21T09:21:55.720Z,22.95
2019-05-21T09:22:55.742Z,23.01
2019-05-21T09:23:55.768Z,23.10
2019-05-21T09:24:55.800Z,23.18
2019-05-21T09:25:55.824Z,23.23
2019-05-21T09:26:55.864Z,22.86
2019-05-21T09:27:55.877Z,22.93
2019-05-21T09:28:55.911Z,23.16
2019-05-21T09:29:55.937Z,23.07
2019-05-21T09:30:55.961Z,23.14
2019-05-21T09:31:55.993Z,23.32
2019-05-21T09:32:56.017Z,23.48
2019-05-21T09:33:56.043Z,23.49
2019-05-21T09:34:56.078Z,23.86
2019-05-21T09:35:56.099Z,23.40
2019-05-21T09:36:56.130Z,23.10
2019-05-21T09:37:56.180Z,23.26
2019-05-21T09:38:56.182Z,23.17
2019-05-21T09:39:56.224Z,23.37
2019-05-21T09:40:56.240Z,23.40
2019-05-21T09:41:56.269Z,23.44
2019-05-21T09:42:56.292Z,23.51
2019-05-21T09:43:56.339Z,23.62
2019-05-21T09:44:56.353Z,23.70
2019-05-21T09:45:56.381Z,23.96
2019-05-21T09:46:56.412Z,24.18
2019-05-21T09:47:56.439Z,24.18
2019-05-21T09:48:56.463Z,23.69
2019-05-21T09:49:56.491Z,23.59
2019-05-21T09:50:56.521Z,23.37
2019-05-21T09:51:56.545Z,23.49
2019-05-21T09:52:56.575Z,23.18
2019-05-21T09:53:56.600Z,23.58
2019-05-21T09:54:56.632Z,23.69
2019-05-21T09:55:56.659Z,23.40
2019-05-21T09:56:56.689Z,23.42
2019-05-21T09:57:56.716Z,24.63
2019-05-21T09:58:56.750Z,25.24
2019-05-21T09:59:56.770Z,27.05
2019-05-21T10:00:56.801Z,26.42
2019-05-21T10:01:56.829Z,27.20
2019-05-21T10:02:56.852Z,28.19
2019-05-21T10:03:56.891Z,28.09
2019-05-21T10:04:56.931Z,28.09
2019-05-21T10:05:56.936Z,29.15
2019-05-21T10:06:56.979Z,30.55
2019-05-21T10:07:56.999Z,28.87
2019-05-21T10:08:57.027Z,29.96
2019-05-21T10:09:57.057Z,30.96
2019-05-21T10:10:57.083Z,31.52
2019-05-21T10:11:57.110Z,31.59
2019-05-21T10:12:57.145Z,31.66
2019-05-21T10:13:57.177Z,32.12
2019-05-21T10:14:57.204Z,31.45
2019-05-21T10:16:01.196Z,31.62
2019-05-21T10:16:57.269Z,30.89
2019-05-21T10:17:57.299Z,30.52
2019-05-21T10:18:57.412Z,29.76
2019-05-21T10:19:58.984Z,29.21
2019-05-21T10:20:57.383Z,28.47
2019-05-21T10:21:57.427Z,27.71
2019-05-21T10:22:57.449Z,27.03
2019-05-21T10:23:57.477Z,26.79
2019-05-21T10:24:57.535Z,26.39
2019-05-21T10:25:57.553Z,26.22
2019-05-21T10:26:57.591Z,26.42
2019-05-21T10:27:57.602Z,26.74
2019-05-21T10:28:57.631Z,26.78
2019-05-21T10:29:57.669Z,26.71
2019-05-21T10:30:57.691Z,27.18
2019-05-21T10:31:57.719Z,27.60
2019-05-21T10:32:57.751Z,28.13
2019-05-21T10:33:57.787Z,28.35
2019-05-21T10:34:57.826Z,28.15
2019-05-21T10:35:57.843Z,28.74
2019-05-21T10:36:57.871Z,28.65
2019-05-21T10:37:57.922Z,29.18
2019-05-21T10:38:57.934Z,29.44
2019-05-21T10:39:57.991Z,29.69
2019-05-21T10:40:57.997Z,29.87
2019-05-21T10:41:58.021Z,29.69
2019-05-21T10:42:58.057Z,29.50
2019-05-21T10:43:58.084Z,28.60
2019-05-21T10:44:58.119Z,28.60
2019-05-21T10:45:58.149Z,28.23
2019-05-21T10:46:58.197Z,28.68
2019-05-21T10:47:58.222Z,29.18
2019-05-21T10:48:58.245Z,30.62
2019-05-21T10:49:58.276Z,31.60
2019-05-21T10:50:58.324Z,32.16
2019-05-21T10:51:58.348Z,32.88
2019-05-21T10:52:58.378Z,32.86
2019-05-21T10:53:58.440Z,32.83
2019-05-21T10:54:58.448Z,32.85
2019-05-21T10:55:58.470Z,33.67
2019-05-21T10:56:58.509Z,34.78
2019-05-21T10:57:58.535Z,35.50
2019-05-21T10:58:58.574Z,35.97
2019-05-21T10:59:58.612Z,36.48
2019-05-21T11:00:58.645Z,36.96
2019-05-21T11:01:58.673Z,37.29
2019-05-21T11:02:58.718Z,37.33
2019-05-21T11:03:58.744Z,37.37
2019-05-21T11:04:58.781Z,36.59
2019-05-21T11:06:09.560Z,35.71
2019-05-21T11:06:58.840Z,34.86
2019-05-21T11:08:22.261Z,33.84
2019-05-21T11:08:58.900Z,32.83
2019-05-21T11:09:58.963Z,32.07
2019-05-21T11:10:58.968Z,31.11
2019-05-21T11:11:59.018Z,30.52
2019-05-21T11:12:59.054Z,29.94
2019-05-21T11:13:59.070Z,29.76
2019-05-21T11:14:59.101Z,29.84
2019-05-21T11:15:59.135Z,30.05
2019-05-21T11:16:59.174Z,30.38
2019-05-21T11:18:10.632Z,30.52
2019-05-21T11:18:59.230Z,31.23
2019-05-21T11:19:59.272Z,31.78
2019-05-21T11:20:59.299Z,32.31
2019-05-21T11:21:59.327Z,32.61
2019-05-21T11:22:59.375Z,32.64
2019-05-21T11:23:59.414Z,32.26
2019-05-21T11:24:59.419Z,32.02
2019-05-21T11:25:59.446Z,31.51
2019-05-21T11:26:59.489Z,30.99
2019-05-21T11:27:59.509Z,30.54
2019-05-21T11:28:59.558Z,30.32
2019-05-21T11:29:59.572Z,29.94
2019-05-21T11:30:59.609Z,29.71
2019-05-21T11:31:59.640Z,28.87
2019-05-21T11:32:59.666Z,28.23
2019-05-21T11:33:59.698Z,28.16
2019-05-21T11:34:59.740Z,27.93
2019-05-21T11:35:59.769Z,27.81
2019-05-21T11:36:59.783Z,27.68
2019-05-21T11:37:59.839Z,27.47
2019-05-21T11:38:59.845Z,27.04
2019-05-21T11:39:59.891Z,26.98
2019-05-21T11:40:59.953Z,27.01
2019-05-21T11:41:59.938Z,26.93
2019-05-21T11:42:59.966Z,26.82
2019-05-21T11:44:00.000Z,26.55
2019-05-21T11:45:00.033Z,26.26
2019-05-21T11:46:03.021Z,26.23
2019-05-21T11:47:00.094Z,26.16
2019-05-21T11:48:00.133Z,26.23
2019-05-21T11:49:00.146Z,26.19
2019-05-21T11:50:00.187Z,26.23
2019-05-21T11:51:00.207Z,26.01
2019-05-21T11:52:00.237Z,25.96
2019-05-21T11:53:00.268Z,25.96
2019-05-21T11:54:00.302Z,25.98
2019-05-21T11:55:00.354Z,25.86
2019-05-21T11:56:00.354Z,25.70
2019-05-21T11:57:00.440Z,25.81
2019-05-21T11:58:00.413Z,25.58
2019-05-21T11:59:00.448Z,25.26
2019-05-21T12:00:00.473Z,25.07
2019-05-21T12:01:00.513Z,24.92
2019-05-21T12:02:00.568Z,24.81
2019-05-21T12:03:00.571Z,24.74
2019-05-21T12:04:00.596Z,24.82
2019-05-21T12:05:00.620Z,25.03
2019-05-21T12:06:00.661Z,24.94
2019-05-21T12:07:03.219Z,24.81
2019-05-21T12:08:00.709Z,24.94
2019-05-21T12:09:00.735Z,24.88
2019-05-21T12:10:00.769Z,24.85
2019-05-21T12:11:00.817Z,24.71
2019-05-21T12:12:00.836Z,24.65
2019-05-21T12:13:00.860Z,24.92
2019-05-21T12:14:00.888Z,24.81
2019-05-21T12:15:00.931Z,24.81
2019-05-21T12:16:00.943Z,24.55
2019-05-21T12:17:00.984Z,24.56
2019-05-21T12:18:01.002Z,24.69
2019-05-21T12:19:01.030Z,24.81
2019-05-21T12:20:01.133Z,24.92
2019-05-21T12:21:01.146Z,24.79
2019-05-21T12:22:01.201Z,24.93
2019-05-21T12:23:01.161Z,24.84
2019-05-21T12:24:01.208Z,24.84
2019-05-21T12:25:01.205Z,24.69
2019-05-21T12:26:01.241Z,24.77
2019-05-21T12:27:01.309Z,24.68
2019-05-21T12:28:01.305Z,24.69
2019-05-21T12:29:01.324Z,24.78
2019-05-21T12:30:01.394Z,24.74
2019-05-21T12:31:01.460Z,24.62
2019-05-21T12:32:01.439Z,24.69
2019-05-21T12:33:01.448Z,24.63
2019-05-21T12:34:01.490Z,24.69
2019-05-21T12:35:01.494Z,24.77
2019-05-21T12:36:01.519Z,24.89
2019-05-21T12:37:01.548Z,24.77
2019-05-21T12:38:01.581Z,24.62
2019-05-21T12:39:13.889Z,24.58
2019-05-21T12:40:01.638Z,24.74
2019-05-21T12:41:01.674Z,24.69
2019-05-21T12:42:01.704Z,24.71
2019-05-21T12:43:01.733Z,24.66
2019-05-21T12:44:01.764Z,24.71
2019-05-21T12:45:01.796Z,24.66
2019-05-21T12:46:01.810Z,24.55
2019-05-21T12:47:01.852Z,24.55
2019-05-21T12:48:01.872Z,24.56
2019-05-21T12:49:01.894Z,24.69
2019-05-21T12:50:01.948Z,24.59
2019-05-21T12:51:01.963Z,24.56
2019-05-21T12:52:01.984Z,24.68
2019-05-21T12:53:02.181Z,24.63
2019-05-21T12:54:02.285Z,24.55